sensor_id;sensor_type;location;lat;lon;timestamp;temperature;humidity
7360;DHT22;3720;48.274;7.796;2023-02-15T00:02:14;1.20;99.90
7360;DHT22;3720;48.274;7.796;2023-02-15T00:04:46;1.10;99.90
7360;DHT22;3720;48.274;7.796;2023-02-15T00:07:18;1.10;99.90
7360;DHT22;3720;48.274;7.796;2023-02-15T00:09:51;1.00;99.90
7360;DHT22;3720;48.274;7.796;2023-02-15T00:12:23;1.10;99.90
7360;DHT22;3720;48.274;7.796;2023-02-15T00:14:55;1.10;99.90
7360;DHT22;3720;48.274;7.796;2023-02-15T00:17:28;1.00;99.90
7360;DHT22;3720;48.274;7.796;2023-02-15T00:20:01;1.00;99.90
7360;DHT22;3720;48.274;7.796;2023-02-15T00:22:32;0.90;99.90
7360;DHT22;3720;48.274;7.796;2023-02-15T00:25:05;0.90;99.90
7360;DHT22;3720;48.274;7.796;2023-02-15T00:27:37;0.90;99.90
7360;DHT22;3720;48.274;7.796;2023-02-15T00:30:10;0.90;99.90
7360;DHT22;3720;48.274;7.796;2023-02-15T00:32:43;0.90;99.90
7360;DHT22;3720;48.274;7.796;2023-02-15T00:35:15;0.90;99.90
7360;DHT22;3720;48.274;7.796;2023-02-15T00:37:47;1.00;99.90
7360;DHT22;3720;48.274;7.796;2023-02-15T00:40:19;1.00;99.90
7360;DHT22;3720;48.274;7.796;2023-02-15T00:42:51;1.00;99.90
7360;DHT22;3720;48.274;7.796;2023-02-15T00:45:23;1.10;99.90
7360;DHT22;3720;48.274;7.796;2023-02-15T00:47:56;1.10;99.90
7360;DHT22;3720;48.274;7.796;2023-02-15T00:50:28;1.10;99.90
7360;DHT22;3720;48.274;7.796;2023-02-15T00:52:59;1.10;99.90
7360;DHT22;3720;48.274;7.796;2023-02-15T00:55:31;1.10;99.90
7360;DHT22;3720;48.274;7.796;2023-02-15T00:58:03;1.10;99.90
7360;DHT22;3720;48.274;7.796;2023-02-15T01:00:36;1.10;99.90
7360;DHT22;3720;48.274;7.796;2023-02-15T01:03:10;1.10;99.90
7360;DHT22;3720;48.274;7.796;2023-02-15T01:05:43;1.10;99.90
7360;DHT22;3720;48.274;7.796;2023-02-15T01:08:15;1.10;99.90
7360;DHT22;3720;48.274;7.796;2023-02-15T01:10:47;1.10;99.90
7360;DHT22;3720;48.274;7.796;2023-02-15T01:13:20;1.10;99.90
7360;DHT22;3720;48.274;7.796;2023-02-15T01:15:53;1.10;99.90
7360;DHT22;3720;48.274;7.796;2023-02-15T01:18:27;1.10;99.90
7360;DHT22;3720;48.274;7.796;2023-02-15T01:20:59;1.10;99.90
7360;DHT22;3720;48.274;7.796;2023-02-15T01:23:32;1.10;99.90
7360;DHT22;3720;48.274;7.796;2023-02-15T01:26:04;1.10;99.90
7360;DHT22;3720;48.274;7.796;2023-02-15T01:28:37;1.10;99.90
7360;DHT22;3720;48.274;7.796;2023-02-15T01:31:10;1.20;99.90
7360;DHT22;3720;48.274;7.796;2023-02-15T01:33:45;1.20;99.90
7360;DHT22;3720;48.274;7.796;2023-02-15T01:36:17;1.10;99.90
7360;DHT22;3720;48.274;7.796;2023-02-15T01:38:50;1.10;99.90
7360;DHT22;3720;48.274;7.796;2023-02-15T01:41:21;1.00;99.90
7360;DHT22;3720;48.274;7.796;2023-02-15T01:44:00;1.00;99.90
7360;DHT22;3720;48.274;7.796;2023-02-15T01:46:35;1.00;99.90
7360;DHT22;3720;48.274;7.796;2023-02-15T01:49:11;1.00;99.90
7360;DHT22;3720;48.274;7.796;2023-02-15T01:51:46;1.00;99.90
7360;DHT22;3720;48.274;7.796;2023-02-15T01:54:23;1.00;99.90
7360;DHT22;3720;48.274;7.796;2023-02-15T01:57:03;0.90;99.90
7360;DHT22;3720;48.274;7.796;2023-02-15T01:59:35;0.90;99.90
7360;DHT22;3720;48.274;7.796;2023-02-15T02:02:09;0.80;99.90
7360;DHT22;3720;48.274;7.796;2023-02-15T02:04:48;0.90;99.90
7360;DHT22;3720;48.274;7.796;2023-02-15T02:07:23;0.90;99.90
7360;DHT22;3720;48.274;7.796;2023-02-15T02:09:56;1.00;99.90
7360;DHT22;3720;48.274;7.796;2023-02-15T02:12:27;0.90;99.90
7360;DHT22;3720;48.274;7.796;2023-02-15T02:14:59;0.90;99.90
7360;DHT22;3720;48.274;7.796;2023-02-15T02:17:42;0.90;99.90
7360;DHT22;3720;48.274;7.796;2023-02-15T02:20:28;1.00;99.90
7360;DHT22;3720;48.274;7.796;2023-02-15T02:32:43;1.00;99.90
7360;DHT22;3720;48.274;7.796;2023-02-15T02:35:19;0.90;99.90
7360;DHT22;3720;48.274;7.796;2023-02-15T02:38:00;0.90;99.90
7360;DHT22;3720;48.274;7.796;2023-02-15T02:40:39;0.90;99.90
7360;DHT22;3720;48.274;7.796;2023-02-15T02:43:20;1.10;99.90
7360;DHT22;3720;48.274;7.796;2023-02-15T02:45:58;1.00;99.90
7360;DHT22;3720;48.274;7.796;2023-02-15T02:48:33;0.90;99.90
7360;DHT22;3720;48.274;7.796;2023-02-15T02:51:05;1.00;99.90
7360;DHT22;3720;48.274;7.796;2023-02-15T02:53:37;0.90;99.90
7360;DHT22;3720;48.274;7.796;2023-02-15T02:56:13;0.80;99.90
7360;DHT22;3720;48.274;7.796;2023-02-15T02:58:53;0.80;99.90
7360;DHT22;3720;48.274;7.796;2023-02-15T03:01:31;0.80;99.90
7360;DHT22;3720;48.274;7.796;2023-02-15T03:04:08;0.90;99.90
7360;DHT22;3720;48.274;7.796;2023-02-15T03:06:45;0.80;99.90
7360;DHT22;3720;48.274;7.796;2023-02-15T03:09:23;0.70;99.90
7360;DHT22;3720;48.274;7.796;2023-02-15T03:12:05;0.70;99.90
7360;DHT22;3720;48.274;7.796;2023-02-15T03:14:38;0.70;99.90
7360;DHT22;3720;48.274;7.796;2023-02-15T03:17:12;0.70;99.90
7360;DHT22;3720;48.274;7.796;2023-02-15T03:19:47;0.60;99.90
7360;DHT22;3720;48.274;7.796;2023-02-15T03:22:23;0.60;99.90
7360;DHT22;3720;48.274;7.796;2023-02-15T03:24:59;0.60;99.90
7360;DHT22;3720;48.274;7.796;2023-02-15T03:27:37;0.50;99.90
7360;DHT22;3720;48.274;7.796;2023-02-15T03:30:11;0.50;99.90
7360;DHT22;3720;48.274;7.796;2023-02-15T03:32:45;0.40;99.90
7360;DHT22;3720;48.274;7.796;2023-02-15T03:35:23;0.40;99.90
7360;DHT22;3720;48.274;7.796;2023-02-15T03:37:59;0.40;99.90
7360;DHT22;3720;48.274;7.796;2023-02-15T03:40:34;0.40;99.90
7360;DHT22;3720;48.274;7.796;2023-02-15T03:43:30;0.30;99.90
7360;DHT22;3720;48.274;7.796;2023-02-15T03:46:08;0.40;99.90
7360;DHT22;3720;48.274;7.796;2023-02-15T03:48:43;0.40;99.90
7360;DHT22;3720;48.274;7.796;2023-02-15T03:51:21;0.40;99.90
7360;DHT22;3720;48.274;7.796;2023-02-15T03:54:08;0.40;99.90
7360;DHT22;3720;48.274;7.796;2023-02-15T03:56:42;0.30;99.90
7360;DHT22;3720;48.274;7.796;2023-02-15T03:59:34;0.30;99.90
7360;DHT22;3720;48.274;7.796;2023-02-15T04:02:30;0.30;99.90
7360;DHT22;3720;48.274;7.796;2023-02-15T04:05:06;0.30;99.90
7360;DHT22;3720;48.274;7.796;2023-02-15T04:07:39;0.30;99.90
7360;DHT22;3720;48.274;7.796;2023-02-15T04:10:11;0.30;99.90
7360;DHT22;3720;48.274;7.796;2023-02-15T04:13:00;0.30;99.90
7360;DHT22;3720;48.274;7.796;2023-02-15T04:15:32;0.30;99.90
7360;DHT22;3720;48.274;7.796;2023-02-15T04:18:21;0.20;99.90
7360;DHT22;3720;48.274;7.796;2023-02-15T04:21:07;0.30;99.90
7360;DHT22;3720;48.274;7.796;2023-02-15T04:23:57;0.20;99.90
7360;DHT22;3720;48.274;7.796;2023-02-15T04:26:47;0.20;99.90
7360;DHT22;3720;48.274;7.796;2023-02-15T04:29:19;0.20;99.90
7360;DHT22;3720;48.274;7.796;2023-02-15T04:31:51;0.20;99.90
7360;DHT22;3720;48.274;7.796;2023-02-15T04:34:23;0.10;99.90
7360;DHT22;3720;48.274;7.796;2023-02-15T04:36:55;0.10;99.90
7360;DHT22;3720;48.274;7.796;2023-02-15T04:39:28;0.10;99.90
7360;DHT22;3720;48.274;7.796;2023-02-15T04:42:01;0.20;99.90
7360;DHT22;3720;48.274;7.796;2023-02-15T04:44:33;0.20;99.90
7360;DHT22;3720;48.274;7.796;2023-02-15T04:47:05;0.20;99.90
7360;DHT22;3720;48.274;7.796;2023-02-15T04:49:37;0.20;99.90
7360;DHT22;3720;48.274;7.796;2023-02-15T04:52:08;0.10;99.90
7360;DHT22;3720;48.274;7.796;2023-02-15T04:54:42;0.10;99.90
7360;DHT22;3720;48.274;7.796;2023-02-15T04:57:14;0.10;99.90
7360;DHT22;3720;48.274;7.796;2023-02-15T04:59:46;0.10;99.90
7360;DHT22;3720;48.274;7.796;2023-02-15T05:02:18;0.00;99.90
7360;DHT22;3720;48.274;7.796;2023-02-15T05:04:49;0.10;99.90
7360;DHT22;3720;48.274;7.796;2023-02-15T05:07:21;0.20;99.90
7360;DHT22;3720;48.274;7.796;2023-02-15T05:09:55;0.10;99.90
7360;DHT22;3720;48.274;7.796;2023-02-15T05:12:26;0.20;99.90
7360;DHT22;3720;48.274;7.796;2023-02-15T05:14:58;0.20;99.90
7360;DHT22;3720;48.274;7.796;2023-02-15T05:17:30;0.30;99.90
7360;DHT22;3720;48.274;7.796;2023-02-15T05:20:03;0.20;99.90
7360;DHT22;3720;48.274;7.796;2023-02-15T05:22:35;0.10;99.90
7360;DHT22;3720;48.274;7.796;2023-02-15T05:25:09;0.10;99.90
7360;DHT22;3720;48.274;7.796;2023-02-15T05:27:58;0.00;99.90
7360;DHT22;3720;48.274;7.796;2023-02-15T05:30:48;0.10;99.90
7360;DHT22;3720;48.274;7.796;2023-02-15T05:33:20;0.10;99.90
7360;DHT22;3720;48.274;7.796;2023-02-15T05:35:52;0.10;99.90
7360;DHT22;3720;48.274;7.796;2023-02-15T05:38:24;0.10;99.90
7360;DHT22;3720;48.274;7.796;2023-02-15T05:40:57;0.10;99.90
7360;DHT22;3720;48.274;7.796;2023-02-15T05:43:29;0.10;99.90
7360;DHT22;3720;48.274;7.796;2023-02-15T05:46:01;0.10;99.90
7360;DHT22;3720;48.274;7.796;2023-02-15T05:48:34;0.10;99.90
7360;DHT22;3720;48.274;7.796;2023-02-15T05:51:08;0.00;99.90
7360;DHT22;3720;48.274;7.796;2023-02-15T05:53:40;0.00;99.90
7360;DHT22;3720;48.274;7.796;2023-02-15T05:56:13;0.00;99.90
7360;DHT22;3720;48.274;7.796;2023-02-15T05:58:45;-0.10;99.90
7360;DHT22;3720;48.274;7.796;2023-02-15T06:01:18;-0.10;99.90
7360;DHT22;3720;48.274;7.796;2023-02-15T06:03:52;-0.10;99.90
7360;DHT22;3720;48.274;7.796;2023-02-15T06:06:24;0.00;99.90
7360;DHT22;3720;48.274;7.796;2023-02-15T06:08:56;0.00;99.90
7360;DHT22;3720;48.274;7.796;2023-02-15T06:11:29;0.00;99.90
7360;DHT22;3720;48.274;7.796;2023-02-15T06:14:01;-0.10;99.90
7360;DHT22;3720;48.274;7.796;2023-02-15T06:16:33;-0.10;99.90
7360;DHT22;3720;48.274;7.796;2023-02-15T06:19:05;-0.10;99.90
7360;DHT22;3720;48.274;7.796;2023-02-15T06:21:37;-0.10;99.90
7360;DHT22;3720;48.274;7.796;2023-02-15T06:24:09;-0.10;99.90
7360;DHT22;3720;48.274;7.796;2023-02-15T06:26:42;-0.20;99.90
7360;DHT22;3720;48.274;7.796;2023-02-15T06:29:14;-0.30;99.90
7360;DHT22;3720;48.274;7.796;2023-02-15T06:31:46;-0.20;99.90
7360;DHT22;3720;48.274;7.796;2023-02-15T06:34:18;-0.20;99.90
7360;DHT22;3720;48.274;7.796;2023-02-15T06:36:50;-0.20;99.90
7360;DHT22;3720;48.274;7.796;2023-02-15T06:39:22;-0.20;99.90
7360;DHT22;3720;48.274;7.796;2023-02-15T06:41:55;-0.10;99.90
7360;DHT22;3720;48.274;7.796;2023-02-15T06:44:27;-0.10;99.90
7360;DHT22;3720;48.274;7.796;2023-02-15T06:46:59;-0.10;99.90
7360;DHT22;3720;48.274;7.796;2023-02-15T06:49:31;-0.10;99.90
7360;DHT22;3720;48.274;7.796;2023-02-15T06:52:03;-0.20;99.90
7360;DHT22;3720;48.274;7.796;2023-02-15T06:54:36;-0.20;99.90
7360;DHT22;3720;48.274;7.796;2023-02-15T06:57:09;-0.20;99.90
7360;DHT22;3720;48.274;7.796;2023-02-15T06:59:41;-0.20;99.90
7360;DHT22;3720;48.274;7.796;2023-02-15T07:02:13;-0.20;99.90
7360;DHT22;3720;48.274;7.796;2023-02-15T07:04:45;-0.10;99.90
7360;DHT22;3720;48.274;7.796;2023-02-15T07:07:17;-0.10;99.90
7360;DHT22;3720;48.274;7.796;2023-02-15T07:09:49;-0.10;99.90
7360;DHT22;3720;48.274;7.796;2023-02-15T07:12:23;-0.10;99.90
7360;DHT22;3720;48.274;7.796;2023-02-15T07:15:13;-0.10;99.90
7360;DHT22;3720;48.274;7.796;2023-02-15T07:17:46;0.00;99.90
7360;DHT22;3720;48.274;7.796;2023-02-15T07:20:20;0.00;99.90
7360;DHT22;3720;48.274;7.796;2023-02-15T07:22:52;0.00;99.90
7360;DHT22;3720;48.274;7.796;2023-02-15T07:25:24;0.00;99.90
7360;DHT22;3720;48.274;7.796;2023-02-15T07:27:58;0.00;99.90
7360;DHT22;3720;48.274;7.796;2023-02-15T07:30:30;0.00;99.90
7360;DHT22;3720;48.274;7.796;2023-02-15T07:33:02;0.00;99.90
7360;DHT22;3720;48.274;7.796;2023-02-15T07:35:54;0.00;99.90
7360;DHT22;3720;48.274;7.796;2023-02-15T07:38:30;-0.10;99.90
7360;DHT22;3720;48.274;7.796;2023-02-15T07:41:04;0.00;99.90
7360;DHT22;3720;48.274;7.796;2023-02-15T07:43:39;0.10;99.90
7360;DHT22;3720;48.274;7.796;2023-02-15T07:46:14;0.00;99.90
7360;DHT22;3720;48.274;7.796;2023-02-15T07:48:47;0.00;99.90
7360;DHT22;3720;48.274;7.796;2023-02-15T07:51:19;0.00;99.90
7360;DHT22;3720;48.274;7.796;2023-02-15T07:53:51;0.00;99.90
7360;DHT22;3720;48.274;7.796;2023-02-15T07:56:23;0.00;99.90
7360;DHT22;3720;48.274;7.796;2023-02-15T07:58:56;0.00;99.90
7360;DHT22;3720;48.274;7.796;2023-02-15T08:01:32;-0.10;99.90
7360;DHT22;3720;48.274;7.796;2023-02-15T08:04:05;-0.10;99.90
7360;DHT22;3720;48.274;7.796;2023-02-15T08:06:38;-0.10;99.90
7360;DHT22;3720;48.274;7.796;2023-02-15T08:09:11;-0.10;99.90
7360;DHT22;3720;48.274;7.796;2023-02-15T08:11:43;-0.10;99.90
7360;DHT22;3720;48.274;7.796;2023-02-15T08:14:17;0.00;99.90
7360;DHT22;3720;48.274;7.796;2023-02-15T08:16:51;0.00;99.90
7360;DHT22;3720;48.274;7.796;2023-02-15T08:19:27;0.00;99.90
7360;DHT22;3720;48.274;7.796;2023-02-15T08:22:01;0.00;99.90
7360;DHT22;3720;48.274;7.796;2023-02-15T08:24:35;0.00;99.90
7360;DHT22;3720;48.274;7.796;2023-02-15T08:27:10;0.10;99.90
7360;DHT22;3720;48.274;7.796;2023-02-15T08:29:43;0.10;99.90
7360;DHT22;3720;48.274;7.796;2023-02-15T08:32:15;0.10;99.90
7360;DHT22;3720;48.274;7.796;2023-02-15T08:34:47;0.20;99.90
7360;DHT22;3720;48.274;7.796;2023-02-15T08:37:19;0.10;99.90
7360;DHT22;3720;48.274;7.796;2023-02-15T08:39:51;0.20;99.90
7360;DHT22;3720;48.274;7.796;2023-02-15T08:42:23;0.10;99.90
7360;DHT22;3720;48.274;7.796;2023-02-15T08:44:56;0.20;99.90
7360;DHT22;3720;48.274;7.796;2023-02-15T08:47:28;0.20;99.90
7360;DHT22;3720;48.274;7.796;2023-02-15T08:50:00;0.20;99.90
7360;DHT22;3720;48.274;7.796;2023-02-15T08:52:32;0.20;99.90
7360;DHT22;3720;48.274;7.796;2023-02-15T08:55:04;0.30;99.90
7360;DHT22;3720;48.274;7.796;2023-02-15T08:57:36;0.40;99.90
7360;DHT22;3720;48.274;7.796;2023-02-15T09:00:11;0.40;99.90
7360;DHT22;3720;48.274;7.796;2023-02-15T09:02:43;0.40;99.90
7360;DHT22;3720;48.274;7.796;2023-02-15T09:05:15;0.40;99.90
7360;DHT22;3720;48.274;7.796;2023-02-15T09:07:47;0.40;99.90
7360;DHT22;3720;48.274;7.796;2023-02-15T09:10:19;0.30;99.90
7360;DHT22;3720;48.274;7.796;2023-02-15T09:12:52;0.40;99.90
7360;DHT22;3720;48.274;7.796;2023-02-15T09:15:25;0.50;99.90
7360;DHT22;3720;48.274;7.796;2023-02-15T09:17:57;0.50;99.90
7360;DHT22;3720;48.274;7.796;2023-02-15T09:20:35;0.60;99.90
7360;DHT22;3720;48.274;7.796;2023-02-15T09:23:07;0.60;99.90
7360;DHT22;3720;48.274;7.796;2023-02-15T09:25:39;0.60;99.90
7360;DHT22;3720;48.274;7.796;2023-02-15T09:28:12;0.60;99.90
7360;DHT22;3720;48.274;7.796;2023-02-15T09:30:46;0.70;99.90
7360;DHT22;3720;48.274;7.796;2023-02-15T09:33:17;0.80;99.90
7360;DHT22;3720;48.274;7.796;2023-02-15T09:35:50;0.80;99.90
7360;DHT22;3720;48.274;7.796;2023-02-15T09:38:21;0.80;99.90
7360;DHT22;3720;48.274;7.796;2023-02-15T09:41:03;0.80;99.90
7360;DHT22;3720;48.274;7.796;2023-02-15T09:43:43;0.90;99.90
7360;DHT22;3720;48.274;7.796;2023-02-15T09:46:32;0.90;99.90
7360;DHT22;3720;48.274;7.796;2023-02-15T09:49:14;1.00;99.90
7360;DHT22;3720;48.274;7.796;2023-02-15T09:52:01;1.00;99.90
7360;DHT22;3720;48.274;7.796;2023-02-15T09:54:50;1.00;99.90
7360;DHT22;3720;48.274;7.796;2023-02-15T09:57:32;1.10;99.90
7360;DHT22;3720;48.274;7.796;2023-02-15T10:00:18;1.20;99.90
7360;DHT22;3720;48.274;7.796;2023-02-15T10:03:10;1.20;99.90
7360;DHT22;3720;48.274;7.796;2023-02-15T10:05:53;1.20;99.90
7360;DHT22;3720;48.274;7.796;2023-02-15T10:08:51;1.30;99.90
7360;DHT22;3720;48.274;7.796;2023-02-15T10:11:33;1.20;99.90
7360;DHT22;3720;48.274;7.796;2023-02-15T10:14:37;1.20;99.90
7360;DHT22;3720;48.274;7.796;2023-02-15T10:17:23;1.20;99.90
7360;DHT22;3720;48.274;7.796;2023-02-15T10:20:08;1.30;99.90
7360;DHT22;3720;48.274;7.796;2023-02-15T10:22:58;1.40;99.90
7360;DHT22;3720;48.274;7.796;2023-02-15T10:25:38;1.40;99.90
7360;DHT22;3720;48.274;7.796;2023-02-15T10:28:16;1.40;99.90
7360;DHT22;3720;48.274;7.796;2023-02-15T10:30:50;1.50;99.90
7360;DHT22;3720;48.274;7.796;2023-02-15T10:33:34;1.50;99.90
7360;DHT22;3720;48.274;7.796;2023-02-15T10:36:23;1.60;99.90
7360;DHT22;3720;48.274;7.796;2023-02-15T10:39:02;1.70;99.90
7360;DHT22;3720;48.274;7.796;2023-02-15T10:41:42;1.70;99.90
7360;DHT22;3720;48.274;7.796;2023-02-15T10:44:29;1.80;99.90
7360;DHT22;3720;48.274;7.796;2023-02-15T10:47:22;1.90;99.90
7360;DHT22;3720;48.274;7.796;2023-02-15T10:50:17;1.90;99.90
7360;DHT22;3720;48.274;7.796;2023-02-15T10:53:05;1.90;99.90
7360;DHT22;3720;48.274;7.796;2023-02-15T10:55:48;1.90;99.90
7360;DHT22;3720;48.274;7.796;2023-02-15T10:58:31;1.90;99.90
7360;DHT22;3720;48.274;7.796;2023-02-15T11:01:13;2.00;99.90
7360;DHT22;3720;48.274;7.796;2023-02-15T11:04:09;2.10;99.90
7360;DHT22;3720;48.274;7.796;2023-02-15T11:06:50;2.10;99.90
7360;DHT22;3720;48.274;7.796;2023-02-15T11:09:28;2.20;99.90
7360;DHT22;3720;48.274;7.796;2023-02-15T11:12:01;2.30;99.90
7360;DHT22;3720;48.274;7.796;2023-02-15T11:14:37;2.30;99.90
7360;DHT22;3720;48.274;7.796;2023-02-15T11:17:13;2.40;99.90
7360;DHT22;3720;48.274;7.796;2023-02-15T11:19:53;2.40;99.90
7360;DHT22;3720;48.274;7.796;2023-02-15T11:22:26;2.40;99.90
7360;DHT22;3720;48.274;7.796;2023-02-15T11:25:02;2.50;99.90
7360;DHT22;3720;48.274;7.796;2023-02-15T11:27:35;2.50;99.90
7360;DHT22;3720;48.274;7.796;2023-02-15T11:30:12;2.70;99.90
7360;DHT22;3720;48.274;7.796;2023-02-15T11:32:48;2.80;99.90
7360;DHT22;3720;48.274;7.796;2023-02-15T11:35:27;2.80;99.90
7360;DHT22;3720;48.274;7.796;2023-02-15T11:38:05;2.80;99.90
7360;DHT22;3720;48.274;7.796;2023-02-15T11:40:46;2.80;99.90
7360;DHT22;3720;48.274;7.796;2023-02-15T11:43:23;2.80;99.90
7360;DHT22;3720;48.274;7.796;2023-02-15T11:45:56;2.70;99.90
7360;DHT22;3720;48.274;7.796;2023-02-15T11:48:29;2.70;99.90
7360;DHT22;3720;48.274;7.796;2023-02-15T11:51:03;2.70;99.90
7360;DHT22;3720;48.274;7.796;2023-02-15T11:53:37;2.80;99.90
7360;DHT22;3720;48.274;7.796;2023-02-15T11:56:15;2.90;99.90
7360;DHT22;3720;48.274;7.796;2023-02-15T11:58:50;3.00;99.90
7360;DHT22;3720;48.274;7.796;2023-02-15T12:01:29;3.00;99.90
7360;DHT22;3720;48.274;7.796;2023-02-15T12:04:06;3.10;99.90
7360;DHT22;3720;48.274;7.796;2023-02-15T12:06:43;3.20;99.90
7360;DHT22;3720;48.274;7.796;2023-02-15T12:09:24;3.30;99.90
7360;DHT22;3720;48.274;7.796;2023-02-15T12:12:22;3.40;99.90
7360;DHT22;3720;48.274;7.796;2023-02-15T12:14:56;3.40;99.90
7360;DHT22;3720;48.274;7.796;2023-02-15T12:17:30;3.40;99.90
7360;DHT22;3720;48.274;7.796;2023-02-15T12:20:19;3.50;99.90
7360;DHT22;3720;48.274;7.796;2023-02-15T12:22:54;3.50;99.90
7360;DHT22;3720;48.274;7.796;2023-02-15T12:25:35;3.40;99.90
7360;DHT22;3720;48.274;7.796;2023-02-15T12:28:26;3.40;99.90
7360;DHT22;3720;48.274;7.796;2023-02-15T12:31:02;3.50;99.90
7360;DHT22;3720;48.274;7.796;2023-02-15T12:33:39;3.60;99.90
7360;DHT22;3720;48.274;7.796;2023-02-15T12:36:19;3.70;99.90
7360;DHT22;3720;48.274;7.796;2023-02-15T12:39:16;3.80;99.90
7360;DHT22;3720;48.274;7.796;2023-02-15T12:42:02;3.80;99.90
7360;DHT22;3720;48.274;7.796;2023-02-15T12:44:36;3.70;99.90
7360;DHT22;3720;48.274;7.796;2023-02-15T12:47:19;3.80;99.90
7360;DHT22;3720;48.274;7.796;2023-02-15T12:50:12;3.90;99.90
7360;DHT22;3720;48.274;7.796;2023-02-15T12:53:01;4.00;99.90
7360;DHT22;3720;48.274;7.796;2023-02-15T12:55:37;4.10;99.90
7360;DHT22;3720;48.274;7.796;2023-02-15T12:58:16;4.10;99.90
7360;DHT22;3720;48.274;7.796;2023-02-15T13:01:03;4.20;99.90
7360;DHT22;3720;48.274;7.796;2023-02-15T13:03:36;4.20;99.90
7360;DHT22;3720;48.274;7.796;2023-02-15T13:06:09;4.20;99.90
7360;DHT22;3720;48.274;7.796;2023-02-15T13:08:47;4.30;99.90
7360;DHT22;3720;48.274;7.796;2023-02-15T13:11:22;4.40;99.90
7360;DHT22;3720;48.274;7.796;2023-02-15T13:13:58;4.50;99.90
7360;DHT22;3720;48.274;7.796;2023-02-15T13:16:33;4.50;99.90
7360;DHT22;3720;48.274;7.796;2023-02-15T13:19:09;4.50;99.90
7360;DHT22;3720;48.274;7.796;2023-02-15T13:21:44;4.60;99.90
7360;DHT22;3720;48.274;7.796;2023-02-15T13:24:20;4.60;99.90
7360;DHT22;3720;48.274;7.796;2023-02-15T13:26:55;4.70;99.90
7360;DHT22;3720;48.274;7.796;2023-02-15T13:29:30;4.90;99.90
7360;DHT22;3720;48.274;7.796;2023-02-15T13:32:07;5.00;99.90
7360;DHT22;3720;48.274;7.796;2023-02-15T13:34:42;5.00;99.90
7360;DHT22;3720;48.274;7.796;2023-02-15T13:37:18;5.00;99.90
7360;DHT22;3720;48.274;7.796;2023-02-15T13:39:55;5.00;99.90
7360;DHT22;3720;48.274;7.796;2023-02-15T13:42:35;5.00;99.90
7360;DHT22;3720;48.274;7.796;2023-02-15T13:45:23;5.00;99.90
7360;DHT22;3720;48.274;7.796;2023-02-15T13:48:10;5.20;99.90
7360;DHT22;3720;48.274;7.796;2023-02-15T13:50:56;5.10;99.90
7360;DHT22;3720;48.274;7.796;2023-02-15T13:53:45;5.10;99.90
7360;DHT22;3720;48.274;7.796;2023-02-15T13:56:31;5.10;99.90
7360;DHT22;3720;48.274;7.796;2023-02-15T13:59:20;5.10;99.90
7360;DHT22;3720;48.274;7.796;2023-02-15T14:02:02;5.10;99.90
7360;DHT22;3720;48.274;7.796;2023-02-15T14:05:04;5.10;99.90
7360;DHT22;3720;48.274;7.796;2023-02-15T14:07:50;5.10;99.90
7360;DHT22;3720;48.274;7.796;2023-02-15T14:13:49;5.00;99.90
7360;DHT22;3720;48.274;7.796;2023-02-15T14:16:33;5.00;99.90
7360;DHT22;3720;48.274;7.796;2023-02-15T14:19:18;5.00;99.90
7360;DHT22;3720;48.274;7.796;2023-02-15T14:21:58;5.10;99.90
7360;DHT22;3720;48.274;7.796;2023-02-15T14:24:38;5.10;99.90
7360;DHT22;3720;48.274;7.796;2023-02-15T14:27:20;5.20;99.90
7360;DHT22;3720;48.274;7.796;2023-02-15T14:29:56;5.10;99.90
7360;DHT22;3720;48.274;7.796;2023-02-15T14:32:34;5.10;99.90
7360;DHT22;3720;48.274;7.796;2023-02-15T14:35:13;5.10;99.90
7360;DHT22;3720;48.274;7.796;2023-02-15T14:37:53;5.10;99.90
7360;DHT22;3720;48.274;7.796;2023-02-15T14:40:34;5.10;99.90
7360;DHT22;3720;48.274;7.796;2023-02-15T14:43:34;5.10;99.90
7360;DHT22;3720;48.274;7.796;2023-02-15T14:46:19;5.20;99.90
7360;DHT22;3720;48.274;7.796;2023-02-15T14:48:53;5.20;99.90
7360;DHT22;3720;48.274;7.796;2023-02-15T14:54:57;5.40;99.90
7360;DHT22;3720;48.274;7.796;2023-02-15T14:57:33;5.40;99.90
7360;DHT22;3720;48.274;7.796;2023-02-15T15:00:39;5.40;99.90
7360;DHT22;3720;48.274;7.796;2023-02-15T15:03:21;5.40;99.90
7360;DHT22;3720;48.274;7.796;2023-02-15T15:05:56;5.40;99.90
7360;DHT22;3720;48.274;7.796;2023-02-15T15:08:33;5.40;99.90
7360;DHT22;3720;48.274;7.796;2023-02-15T15:11:42;5.40;99.90
7360;DHT22;3720;48.274;7.796;2023-02-15T15:14:39;5.30;99.90
7360;DHT22;3720;48.274;7.796;2023-02-15T15:17:13;5.20;99.90
7360;DHT22;3720;48.274;7.796;2023-02-15T15:20:02;5.20;99.90
7360;DHT22;3720;48.274;7.796;2023-02-15T15:22:35;5.10;99.90
7360;DHT22;3720;48.274;7.796;2023-02-15T15:25:41;5.10;99.90
7360;DHT22;3720;48.274;7.796;2023-02-15T15:28:53;5.10;99.90
7360;DHT22;3720;48.274;7.796;2023-02-15T15:31:41;5.10;99.90
7360;DHT22;3720;48.274;7.796;2023-02-15T15:34:48;5.00;99.90
7360;DHT22;3720;48.274;7.796;2023-02-15T15:37:48;5.00;99.90
7360;DHT22;3720;48.274;7.796;2023-02-15T15:40:42;5.00;99.90
7360;DHT22;3720;48.274;7.796;2023-02-15T15:46:56;4.90;99.90
7360;DHT22;3720;48.274;7.796;2023-02-15T15:49:32;4.80;99.90
7360;DHT22;3720;48.274;7.796;2023-02-15T15:52:13;4.70;99.90
7360;DHT22;3720;48.274;7.796;2023-02-15T15:54:48;4.60;99.90
7360;DHT22;3720;48.274;7.796;2023-02-15T15:57:27;4.60;99.90
7360;DHT22;3720;48.274;7.796;2023-02-15T16:00:00;4.70;99.90
7360;DHT22;3720;48.274;7.796;2023-02-15T16:02:33;4.60;99.90
7360;DHT22;3720;48.274;7.796;2023-02-15T16:05:09;4.60;99.90
7360;DHT22;3720;48.274;7.796;2023-02-15T16:07:41;4.50;99.90
7360;DHT22;3720;48.274;7.796;2023-02-15T16:10:21;4.40;99.90
7360;DHT22;3720;48.274;7.796;2023-02-15T16:12:54;4.30;99.90
7360;DHT22;3720;48.274;7.796;2023-02-15T16:15:35;4.20;99.90
7360;DHT22;3720;48.274;7.796;2023-02-15T16:18:11;4.20;99.90
7360;DHT22;3720;48.274;7.796;2023-02-15T16:20:50;4.10;99.90
7360;DHT22;3720;48.274;7.796;2023-02-15T16:23:52;4.10;99.90
7360;DHT22;3720;48.274;7.796;2023-02-15T16:29:31;3.90;99.90
7360;DHT22;3720;48.274;7.796;2023-02-15T16:32:05;3.80;99.90
7360;DHT22;3720;48.274;7.796;2023-02-15T16:34:38;3.80;99.90
7360;DHT22;3720;48.274;7.796;2023-02-15T16:37:17;3.80;99.90
7360;DHT22;3720;48.274;7.796;2023-02-15T16:39:52;3.80;99.90
7360;DHT22;3720;48.274;7.796;2023-02-15T16:42:24;3.80;99.90
7360;DHT22;3720;48.274;7.796;2023-02-15T16:45:00;3.70;99.90
7360;DHT22;3720;48.274;7.796;2023-02-15T16:47:38;3.70;99.90
7360;DHT22;3720;48.274;7.796;2023-02-15T16:50:19;3.70;99.90
7360;DHT22;3720;48.274;7.796;2023-02-15T16:53:04;3.60;99.90
7360;DHT22;3720;48.274;7.796;2023-02-15T16:55:39;3.60;99.90
7360;DHT22;3720;48.274;7.796;2023-02-15T16:58:15;3.60;99.90
7360;DHT22;3720;48.274;7.796;2023-02-15T17:00:48;3.50;99.90
7360;DHT22;3720;48.274;7.796;2023-02-15T17:03:23;3.50;99.90
7360;DHT22;3720;48.274;7.796;2023-02-15T17:05:57;3.40;99.90
7360;DHT22;3720;48.274;7.796;2023-02-15T17:08:31;3.50;99.90
7360;DHT22;3720;48.274;7.796;2023-02-15T17:11:13;3.50;99.90
7360;DHT22;3720;48.274;7.796;2023-02-15T17:14:10;3.30;99.90
7360;DHT22;3720;48.274;7.796;2023-02-15T17:16:45;3.30;99.90
7360;DHT22;3720;48.274;7.796;2023-02-15T17:19:23;3.30;99.90
7360;DHT22;3720;48.274;7.796;2023-02-15T17:21:59;3.20;99.90
7360;DHT22;3720;48.274;7.796;2023-02-15T17:24:35;3.00;99.90
7360;DHT22;3720;48.274;7.796;2023-02-15T17:27:14;3.00;99.90
7360;DHT22;3720;48.274;7.796;2023-02-15T17:29:49;3.00;99.90
7360;DHT22;3720;48.274;7.796;2023-02-15T17:32:24;3.00;99.90
7360;DHT22;3720;48.274;7.796;2023-02-15T17:35:01;2.90;99.90
7360;DHT22;3720;48.274;7.796;2023-02-15T17:37:45;2.90;99.90
7360;DHT22;3720;48.274;7.796;2023-02-15T17:40:22;2.90;99.90
7360;DHT22;3720;48.274;7.796;2023-02-15T17:42:55;2.90;99.90
7360;DHT22;3720;48.274;7.796;2023-02-15T17:45:31;2.90;99.90
7360;DHT22;3720;48.274;7.796;2023-02-15T17:48:05;2.90;99.90